Williamston, SC (29697)

11:44 AM EST on February 25, 2017 (GMT -0500)
Williamston Area Weather | | Change Station
Active Advisory: Special Statement

Elev 908 ft 34.63 °N, 82.51 °W | Updated 11 seconds ago

Clear
Clear
70.9 °F
Feels Like 76 °F
N
4.0
Wind Variable Wind from NNW
Gusts 12.0 mph

Today
High -- | Low -- °F
--% Chance of Precip.
Yesterday
High -- | Low -- °F
Precip. -- in
Pressure 29.73 in
Visibility 10.0 miles
Clouds Scattered Clouds 2900 ft
Heat Index 76 °F
Dew Point 38 °F
Humidity 30%
Rainfall 0.00 in
Snow Depth Not available.
7:03 AM 6:22 PM
Waning Crescent, 1% visible
METAR KGYH 251547Z 25009G17KT 10SM SCT029 21/13 A2973
Pressure 29.73 in
Visibility 10.0 miles
Clouds Scattered Clouds 2900 ft
Heat Index 76 °F
Dew Point 38 °F
Humidity 30%
Rainfall 0.00 in
Snow Depth Not available.
7:03 AM 6:22 PM
Waning Crescent, 1% visible
METAR KGYH 251547Z 25009G17KT 10SM SCT029 21/13 A2973

Get Your Daily Forecast Email!

Thanks for signing up!

Be on the lookout for a verification email in your inbox.

You'll start receiving the daily forecast at 8 AM.

×

10-Day Weather Forecast

Almanac

Astronomy

Feb. 25, 2017 Rise Set
Actual Time
Civil Twilight
Nautical Twilight
Astronomical Twilight
Moon
Length of Visible Light
Length of Day
Tomorrow will be .
, % of the Moon is Illuminated

Today's Extremes

State Highs State Lows

Community

WunderPhotos

Upload Photos

1,962,540 photos uploaded!

WunderBlog® & News

Nearby

Air Quality

  Air Quality AQ Index Pollutant
Not available.

Snow Depth

Station Depth Elevation

Earthquake Activity

City Distance Mag. Time & Date
Minimum magnitude displayed is 2.5.

Coastal Water Temperatures

Place Temperature

Stations

Nearby Weather Stations

Station Location Temp. Windchill Dew Point Humidity Wind Precip. Elev Updated Type
                   

Watches & Warnings

Special Statement
Issued: 3:18 AM EST Feb. 25, 2017 – National Weather Service

... Fire danger statement in effect across upstate South Carolina from
noon EST today through this afternoon...

Very dry conditions will continue across the upstate of South
Carolina today. Temperatures warming into the upper 60s and lower
70s combined with a very dry airmass moving into the region will
allow relative humidity values to lower to between 25 to 30
percent for several hours during the afternoon, with some
locations dropping below 25 percent. Winds will increase to
between 15 to 20 mph with gusts 30 to 35 mph. While fuels will be
marginal, the combination of winds and low relative humidity will
increase fire danger.

Please refer to your local burn permitting authorities on whether
you can burn on Saturday. If you do burn, use caution since fires
can quickly get out of hand under these conditions.